Time;durP1;ratioP1;P1;durP2;ratioP2;P2;SDS_P1;SDS_P2;PMS_P1;PMS_P2;Temp;Humidity;BMP_temperature;BMP_pressure;BME280_temperature;BME280_humidity;BME280_pressure;Samples;Min_cycle;Max_cycle;Signal;HPM_P1;HPM_P2
2021/01/07 00:00:24;;;;;;;13.52;9.50;;;1.30;1.00;;;;;;5073307;28;20542;-66
2021/01/07 00:02:50;;;;;;;12.05;8.73;;;1.20;1.00;;;;;;5073200;28;20220;-65
2021/01/07 00:05:17;;;;;;;13.35;9.52;;;1.20;1.00;;;;;;5073247;28;20192;-65
2021/01/07 00:07:43;;;;;;;14.57;8.43;;;1.20;1.00;;;;;;5073130;28;20729;-65
2021/01/07 00:10:10;;;;;;;13.90;8.90;;;1.20;1.00;;;;;;5073210;28;20239;-66
2021/01/07 00:12:36;;;;;;;14.70;9.68;;;1.20;1.00;;;;;;5073138;28;20622;-66
2021/01/07 00:15:03;;;;;;;12.18;8.00;;;1.20;1.00;;;;;;5073119;28;20200;-65
2021/01/07 00:17:29;;;;;;;11.57;7.75;;;1.20;1.00;;;;;;5072968;28;20200;-66
2021/01/07 00:19:55;;;;;;;13.00;9.88;;;1.30;1.00;;;;;;5072659;28;20196;-65
2021/01/07 00:22:22;;;;;;;13.77;8.95;;;1.30;1.00;;;;;;5072796;28;20231;-66
2021/01/07 00:24:48;;;;;;;11.85;9.35;;;1.30;1.00;;;;;;5073462;28;20207;-65
2021/01/07 00:27:15;;;;;;;12.75;8.57;;;1.20;1.00;;;;;;5073051;28;20199;-65
2021/01/07 00:29:41;;;;;;;13.10;8.43;;;1.30;1.00;;;;;;5072829;28;20648;-65
2021/01/07 00:32:07;;;;;;;14.77;9.02;;;1.20;1.00;;;;;;5072723;28;20212;-65
2021/01/07 00:34:33;;;;;;;16.90;9.80;;;1.20;1.00;;;;;;5072769;28;20606;-65
2021/01/07 00:37:00;;;;;;;14.68;9.75;;;1.20;1.00;;;;;;5072720;28;20216;-66
2021/01/07 00:39:27;;;;;;;15.68;9.25;;;1.20;1.00;;;;;;5072918;28;20194;-65
2021/01/07 00:41:55;;;;;;;14.20;8.55;;;1.20;1.00;;;;;;5072116;28;20220;-65
2021/01/07 00:44:21;;;;;;;18.23;11.00;;;1.20;1.00;;;;;;5072803;28;20203;-65
2021/01/07 00:46:47;;;;;;;19.35;10.40;;;1.30;1.00;;;;;;5072485;28;20188;-65
2021/01/07 00:49:13;;;;;;;15.23;9.55;;;1.30;1.00;;;;;;5072706;28;20208;-65
2021/01/07 00:51:39;;;;;;;17.27;9.18;;;1.30;1.00;;;;;;5072149;28;20769;-65
2021/01/07 00:54:05;;;;;;;17.90;10.15;;;1.40;1.00;;;;;;5072890;28;20250;-65
2021/01/07 00:56:36;;;;;;;21.73;12.82;;;1.40;1.00;;;;;;5072697;28;20221;-65
2021/01/07 00:59:02;;;;;;;18.63;11.85;;;1.40;1.00;;;;;;5072393;28;20193;-66
2021/01/07 01:01:28;;;;;;;18.67;12.57;;;1.30;1.00;;;;;;5071977;28;20196;-64
2021/01/07 01:03:55;;;;;;;19.30;12.80;;;1.30;1.00;;;;;;5072250;28;20211;-65
2021/01/07 01:06:21;;;;;;;26.38;14.52;;;1.30;1.00;;;;;;5072297;28;20197;-64
2021/01/07 01:08:47;;;;;;;22.85;12.75;;;1.20;1.00;;;;;;5072492;28;20208;-65
2021/01/07 01:11:13;;;;;;;22.30;12.88;;;1.10;1.00;;;;;;5072023;28;20197;-65
2021/01/07 01:13:40;;;;;;;19.08;12.18;;;1.10;1.00;;;;;;5072173;28;20314;-65
2021/01/07 01:16:07;;;;;;;21.38;11.75;;;1.20;17.20;;;;;;5071771;28;20215;-65
2021/01/07 01:18:33;;;;;;;13.30;9.23;;;1.10;14.60;;;;;;5072484;28;20192;-65
2021/01/07 01:20:59;;;;;;;13.77;10.50;;;1.20;36.60;;;;;;5071820;28;20195;-65
2021/01/07 01:23:25;;;;;;;13.88;9.07;;;1.10;29.20;;;;;;5071836;28;20224;-65
2021/01/07 01:25:51;;;;;;;14.75;9.68;;;1.10;42.30;;;;;;5071913;28;20193;-65
2021/01/07 01:28:17;;;;;;;15.85;8.82;;;1.20;54.90;;;;;;5072121;28;20211;-65
2021/01/07 01:30:44;;;;;;;14.77;9.10;;;1.10;55.00;;;;;;5071400;28;20246;-65
2021/01/07 01:33:10;;;;;;;16.02;8.95;;;1.10;74.00;;;;;;5072060;28;20266;-65
2021/01/07 01:35:36;;;;;;;11.32;8.93;;;1.10;82.80;;;;;;5071913;28;20696;-65
2021/01/07 01:38:03;;;;;;;16.67;9.00;;;1.20;82.80;;;;;;5071887;28;20203;-64
2021/01/07 01:40:29;;;;;;;15.93;8.05;;;1.20;91.20;;;;;;5071581;28;20566;-65
2021/01/07 01:42:56;;;;;;;15.25;9.07;;;1.20;98.10;;;;;;5071592;28;20707;-65
2021/01/07 01:45:22;;;;;;;13.98;8.00;;;1.20;99.90;;;;;;5071625;28;20218;-65
2021/01/07 01:47:49;;;;;;;8.90;6.60;;;1.20;99.90;;;;;;5071944;28;20257;-65
2021/01/07 01:50:15;;;;;;;15.73;9.13;;;1.20;99.90;;;;;;5071488;28;20219;-65
2021/01/07 01:52:41;;;;;;;13.85;10.07;;;1.20;99.90;;;;;;5071783;28;20217;-65
2021/01/07 01:55:08;;;;;;;11.77;8.88;;;1.10;99.90;;;;;;5071465;28;20660;-65
2021/01/07 01:57:35;;;;;;;12.23;8.77;;;1.10;99.90;;;;;;5071712;28;20196;-64
2021/01/07 02:00:01;;;;;;;17.38;8.77;;;1.10;99.90;;;;;;5071342;28;20238;-65
2021/01/07 02:02:28;;;;;;;11.07;8.43;;;1.20;99.90;;;;;;5071351;28;20216;-65
2021/01/07 02:04:55;;;;;;;14.35;9.13;;;1.20;99.90;;;;;;5071571;28;20196;-65
2021/01/07 02:07:23;;;;;;;18.38;9.80;;;1.30;99.90;;;;;;5071509;28;20660;-65
2021/01/07 02:09:50;;;;;;;17.75;11.35;;;1.30;99.90;;;;;;5071690;28;20567;-65
2021/01/07 02:12:16;;;;;;;18.25;9.93;;;1.30;99.90;;;;;;5070986;28;20224;-65
2021/01/07 02:14:43;;;;;;;20.45;12.43;;;1.30;99.90;;;;;;5071848;28;20201;-65
2021/01/07 02:17:10;;;;;;;16.50;10.93;;;1.20;99.90;;;;;;5071227;28;20784;-65
2021/01/07 02:19:37;;;;;;;21.50;12.80;;;1.30;99.90;;;;;;5075324;28;20660;-65
2021/01/07 02:22:05;;;;;;;19.08;11.73;;;1.30;99.90;;;;;;5074748;28;20274;-65
2021/01/07 02:24:32;;;;;;;25.15;14.38;;;1.30;99.90;;;;;;5075408;28;20197;-65
2021/01/07 02:27:00;;;;;;;26.42;14.63;;;1.40;99.90;;;;;;5074978;28;20601;-65
2021/01/07 02:29:26;;;;;;;26.55;15.30;;;1.30;99.90;;;;;;5075398;28;20199;-65
2021/01/07 02:31:52;;;;;;;24.98;14.80;;;1.30;99.90;;;;;;5074725;28;20274;-65
2021/01/07 02:34:18;;;;;;;25.27;14.93;;;1.30;99.90;;;;;;5074935;28;20242;-65
2021/01/07 02:36:44;;;;;;;23.83;14.20;;;1.30;99.90;;;;;;5074993;28;20216;-65
2021/01/07 02:39:11;;;;;;;21.83;13.20;;;1.30;99.90;;;;;;5074808;28;20197;-64
2021/01/07 02:41:38;;;;;;;24.98;15.32;;;1.30;99.90;;;;;;5074525;28;20200;-65
2021/01/07 02:44:04;;;;;;;22.73;14.05;;;1.20;99.90;;;;;;5075171;28;20195;-65
2021/01/07 02:46:30;;;;;;;22.33;13.40;;;1.30;99.90;;;;;;5074915;28;20226;-64
2021/01/07 02:48:56;;;;;;;27.55;11.43;;;1.20;99.90;;;;;;5075087;28;20204;-64
2021/01/07 02:51:22;;;;;;;20.25;12.27;;;1.10;99.90;;;;;;5074316;28;20199;-64
2021/01/07 02:53:48;;;;;;;20.42;11.38;;;1.20;99.90;;;;;;5074678;28;20818;-65
2021/01/07 02:56:15;;;;;;;20.17;11.68;;;1.20;99.90;;;;;;5074358;28;20212;-64
2021/01/07 02:58:41;;;;;;;18.08;11.55;;;1.20;99.90;;;;;;5074812;28;20205;-65
2021/01/07 03:01:07;;;;;;;15.45;10.50;;;1.20;99.90;;;;;;5074323;28;20235;-65
2021/01/07 03:03:33;;;;;;;18.45;11.27;;;1.30;99.90;;;;;;5074515;28;20703;-65
2021/01/07 03:06:00;;;;;;;22.02;14.25;;;1.20;99.90;;;;;;5074842;28;20207;-65
2021/01/07 03:08:26;;;;;;;22.17;13.50;;;1.20;99.90;;;;;;5074555;28;20196;-65
2021/01/07 03:10:52;;;;;;;24.63;14.80;;;1.20;99.90;;;;;;5074491;28;20204;-65
2021/01/07 03:13:19;;;;;;;17.67;12.75;;;1.30;99.90;;;;;;5074392;28;20220;-65
2021/01/07 03:15:45;;;;;;;22.77;14.38;;;1.30;99.90;;;;;;5074563;28;20900;-65
2021/01/07 03:18:11;;;;;;;23.83;15.82;;;1.30;99.90;;;;;;5074216;28;20199;-65
2021/01/07 03:20:37;;;;;;;25.98;15.65;;;1.30;99.90;;;;;;5074078;28;20193;-65
2021/01/07 03:23:05;;;;;;;25.20;16.65;;;1.30;99.90;;;;;;5073737;28;20634;-65
2021/01/07 03:25:31;;;;;;;27.15;15.60;;;1.20;99.90;;;;;;5074064;28;20196;-65
2021/01/07 03:27:57;;;;;;;33.03;19.52;;;1.10;99.90;;;;;;5074365;28;20200;-64
2021/01/07 03:30:24;;;;;;;33.65;17.75;;;1.20;99.90;;;;;;5072561;28;20196;-65
2021/01/07 03:32:50;;;;;;;29.23;16.55;;;1.30;99.90;;;;;;5073995;28;20634;-65
2021/01/07 03:35:16;;;;;;;31.17;16.52;;;1.30;99.90;;;;;;5073766;28;20196;-65
2021/01/07 03:37:42;;;;;;;33.55;17.80;;;1.30;99.90;;;;;;5073947;28;20222;-64
2021/01/07 03:40:09;;;;;;;28.92;16.48;;;1.30;99.90;;;;;;5073671;28;20201;-64
2021/01/07 03:42:36;;;;;;;28.25;16.52;;;1.20;99.90;;;;;;5073825;28;20224;-65
2021/01/07 03:45:02;;;;;;;31.58;17.58;;;1.30;99.90;;;;;;5074028;28;20204;-65
2021/01/07 03:47:29;;;;;;;34.90;17.45;;;1.20;99.90;;;;;;5073746;28;20192;-65
2021/01/07 03:49:55;;;;;;;30.45;16.60;;;1.30;99.90;;;;;;5073845;28;20242;-65
2021/01/07 03:52:21;;;;;;;37.35;17.85;;;1.30;99.90;;;;;;5072962;28;20219;-65
2021/01/07 03:54:47;;;;;;;25.48;16.63;;;1.20;99.90;;;;;;5073881;28;20537;-65
2021/01/07 03:57:13;;;;;;;34.63;19.33;;;1.20;99.90;;;;;;5072997;28;20220;-65
2021/01/07 03:59:39;;;;;;;29.75;16.90;;;1.20;99.90;;;;;;5073819;28;20249;-64
2021/01/07 04:02:06;;;;;;;27.50;18.98;;;1.30;99.90;;;;;;5073348;28;20216;-64
2021/01/07 04:04:33;;;;;;;34.67;18.52;;;1.30;99.90;;;;;;5073371;28;20275;-64
2021/01/07 04:06:59;;;;;;;36.83;20.02;;;1.20;99.90;;;;;;5073320;28;20193;-65
2021/01/07 04:09:25;;;;;;;39.63;19.90;;;1.30;99.90;;;;;;5073260;28;20220;-65
2021/01/07 04:11:51;;;;;;;33.58;18.75;;;1.30;99.90;;;;;;5073227;28;20212;-65
2021/01/07 04:14:17;;;;;;;38.42;21.42;;;1.30;99.90;;;;;;5073118;28;20207;-65
2021/01/07 04:16:43;;;;;;;42.70;24.92;;;1.30;99.90;;;;;;5073081;28;20211;-64
2021/01/07 04:19:09;;;;;;;41.70;22.10;;;1.20;99.90;;;;;;5073051;28;20196;-65
2021/01/07 04:21:45;;;;;;;38.65;21.83;;;1.20;99.90;;;;;;5072217;28;20193;-65
2021/01/07 04:24:12;;;;;;;42.00;22.65;;;1.10;99.90;;;;;;5073202;28;20207;-65
2021/01/07 04:26:39;;;;;;;41.70;23.75;;;1.20;99.90;;;;;;5072958;28;20197;-65
2021/01/07 04:29:05;;;;;;;39.30;20.55;;;1.10;99.90;;;;;;5072940;28;20197;-65
2021/01/07 04:31:31;;;;;;;43.95;24.00;;;1.20;99.90;;;;;;5072186;28;20203;-65
2021/01/07 04:33:57;;;;;;;39.70;22.05;;;1.20;99.90;;;;;;5072654;28;20200;-65
2021/01/07 04:36:23;;;;;;;46.03;23.83;;;1.20;99.90;;;;;;5072871;28;20220;-65
2021/01/07 04:38:50;;;;;;;40.90;23.10;;;1.20;99.90;;;;;;5072583;28;20590;-65
2021/01/07 04:41:17;;;;;;;43.85;24.13;;;1.20;99.90;;;;;;5072135;28;20200;-65
2021/01/07 04:43:43;;;;;;;41.28;23.33;;;1.10;99.90;;;;;;5072856;28;20221;-65
2021/01/07 04:46:09;;;;;;;38.28;21.50;;;1.10;99.90;;;;;;5072575;28;20203;-65
2021/01/07 04:48:37;;;;;;;38.72;23.45;;;1.10;99.90;;;;;;5072176;28;20192;-64
2021/01/07 04:51:03;;;;;;;41.78;23.05;;;1.20;99.90;;;;;;5072472;28;20229;-65
2021/01/07 04:53:29;;;;;;;41.72;21.33;;;1.10;99.90;;;;;;5072714;28;20220;-64
2021/01/07 04:55:57;;;;;;;38.80;23.63;;;1.10;99.90;;;;;;5072254;28;20208;-65
2021/01/07 04:58:23;;;;;;;47.10;24.00;;;1.20;99.90;;;;;;5072575;28;20307;-64
2021/01/07 05:00:49;;;;;;;36.28;22.05;;;1.20;99.90;;;;;;5071761;28;20540;-64
2021/01/07 05:03:20;;;;;;;40.40;21.67;;;1.20;99.90;;;;;;5072433;28;20216;-64
2021/01/07 05:05:48;;;;;;;36.80;21.55;;;1.20;99.90;;;;;;5072235;28;20188;-65
2021/01/07 05:08:17;;;;;;;33.58;21.08;;;1.10;99.90;;;;;;5072410;28;20196;-64
2021/01/07 05:10:43;;;;;;;30.25;20.23;;;1.10;99.90;;;;;;5072268;28;20564;-65
2021/01/07 05:13:12;;;;;;;36.88;20.15;;;1.10;99.90;;;;;;5072224;28;20715;-65
2021/01/07 05:15:39;;;;;;;35.80;20.08;;;1.20;99.90;;;;;;5072209;28;20679;-65
2021/01/07 05:18:05;;;;;;;38.58;20.58;;;1.20;99.90;;;;;;5072218;28;20235;-65
2021/01/07 05:20:32;;;;;;;36.33;19.77;;;1.30;99.90;;;;;;5069269;28;20582;-64
2021/01/07 05:22:59;;;;;;;28.35;18.30;;;1.30;99.90;;;;;;5071708;28;20231;-65
2021/01/07 05:25:29;;;;;;;28.25;17.67;;;1.30;99.90;;;;;;5071743;28;20196;-66
2021/01/07 05:27:57;;;;;;;32.08;19.92;;;1.30;99.90;;;;;;5072068;28;20193;-65
2021/01/07 05:30:27;;;;;;;38.75;23.55;;;1.20;99.90;;;;;;5071316;28;20196;-65
2021/01/07 05:32:59;;;;;;;33.25;20.05;;;1.20;99.90;;;;;;5071815;28;20212;-65
2021/01/07 05:35:25;;;;;;;31.55;19.73;;;1.20;99.90;;;;;;5071411;28;20204;-64
2021/01/07 05:37:51;;;;;;;31.58;19.85;;;1.30;99.90;;;;;;5071641;28;20571;-65
2021/01/07 05:40:18;;;;;;;33.42;19.55;;;1.20;99.90;;;;;;5071463;28;20205;-65
2021/01/07 05:42:45;;;;;;;25.70;18.23;;;1.30;99.90;;;;;;5071062;28;20212;-64
2021/01/07 05:45:13;;;;;;;37.92;20.90;;;1.30;99.90;;;;;;5071909;28;20257;-65
2021/01/07 05:47:43;;;;;;;29.33;19.73;;;1.40;99.90;;;;;;5071887;28;20196;-64
2021/01/07 05:50:10;;;;;;;40.13;19.20;;;1.30;99.90;;;;;;5071987;28;20208;-66
2021/01/07 05:52:42;;;;;;;32.40;20.73;;;1.30;99.90;;;;;;5071472;28;20271;-65
2021/01/07 05:55:09;;;;;;;32.50;19.15;;;1.30;99.90;;;;;;5075935;28;20215;-64
2021/01/07 05:57:38;;;;;;;33.83;19.80;;;1.30;99.90;;;;;;5075565;28;20224;-64
2021/01/07 06:00:06;;;;;;;34.35;19.45;;;1.30;99.90;;;;;;5075768;28;20193;-64
2021/01/07 06:02:36;;;;;;;32.53;19.83;;;1.30;99.90;;;;;;5075009;28;20699;-64
2021/01/07 06:05:05;;;;;;;33.30;20.85;;;1.30;99.90;;;;;;5075455;28;20203;-64
2021/01/07 06:07:32;;;;;;;34.60;20.08;;;1.30;99.90;;;;;;5075294;28;20200;-64
2021/01/07 06:09:59;;;;;;;35.65;21.33;;;1.30;99.90;;;;;;5074846;28;20579;-64
2021/01/07 06:12:27;;;;;;;40.75;20.85;;;1.40;99.90;;;;;;5075411;28;20216;-66
2021/01/07 06:14:53;;;;;;;41.45;19.25;;;1.40;99.90;;;;;;5075339;28;20565;-65
2021/01/07 06:17:21;;;;;;;39.45;21.98;;;1.40;99.90;;;;;;5075335;28;20231;-66
2021/01/07 06:19:52;;;;;;;37.45;19.58;;;1.40;99.90;;;;;;5075262;28;20202;-65
2021/01/07 06:22:19;;;;;;;36.15;21.75;;;1.30;99.90;;;;;;5074524;28;20228;-65
2021/01/07 06:24:50;;;;;;;35.38;21.58;;;1.30;99.90;;;;;;5075324;28;20230;-64
2021/01/07 06:27:31;;;;;;;28.15;16.98;;;1.40;99.90;;;;;;5074898;28;20197;-65
2021/01/07 06:30:20;;;;;;;33.03;22.67;;;1.40;99.90;;;;;;5075152;28;20200;-65
2021/01/07 06:32:59;;;;;;;39.78;21.35;;;1.40;99.90;;;;;;5074117;28;20719;-65
2021/01/07 06:35:33;;;;;;;38.80;20.65;;;1.40;99.90;;;;;;5075134;28;20200;-65
2021/01/07 06:38:00;;;;;;;38.85;22.95;;;1.30;99.90;;;;;;5074851;28;20246;-66
2021/01/07 06:40:26;;;;;;;27.00;18.40;;;1.20;99.90;;;;;;5074871;28;20648;-66
2021/01/07 06:42:54;;;;;;;32.03;18.55;;;1.10;99.90;;;;;;5074596;28;20216;-67
2021/01/07 06:45:22;;;;;;;34.67;20.65;;;1.10;99.90;;;;;;5074538;28;20247;-67
2021/01/07 06:47:48;;;;;;;32.85;18.35;;;1.10;99.90;;;;;;5074721;28;20233;-67
2021/01/07 06:50:15;;;;;;;22.90;15.25;;;1.20;99.90;;;;;;5073899;28;20721;-67
2021/01/07 06:52:42;;;;;;;24.98;16.77;;;1.10;99.90;;;;;;5073982;28;20223;-67
2021/01/07 06:55:12;;;;;;;30.65;17.73;;;1.10;99.90;;;;;;5074294;28;20672;-67
2021/01/07 06:57:44;;;;;;;37.75;17.90;;;1.00;1.00;;;;;;5074215;28;20223;-68
2021/01/07 07:00:12;;;;;;;26.65;16.27;;;1.00;1.00;;;;;;5074161;28;20234;-68
2021/01/07 07:02:38;;;;;;;28.65;15.90;;;1.10;1.00;;;;;;5073986;28;20216;-68
2021/01/07 07:05:07;;;;;;;24.17;16.17;;;1.10;1.00;;;;;;5074276;28;20192;-67
2021/01/07 07:08:12;;;;;;;25.60;17.63;;;1.10;1.00;;;;;;5073905;28;20189;-68
2021/01/07 07:10:57;;;;;;;26.90;15.05;;;1.10;1.00;;;;;;5070338;28;20226;-66
2021/01/07 07:13:26;;;;;;;23.73;16.65;;;1.10;1.00;;;;;;5074160;28;20624;-65
2021/01/07 07:15:53;;;;;;;24.00;16.50;;;1.10;1.00;;;;;;5073965;28;20691;-65
2021/01/07 07:18:25;;;;;;;29.13;16.83;;;1.10;1.00;;;;;;5073412;28;20577;-67
2021/01/07 07:20:51;;;;;;;24.70;17.58;;;1.00;1.00;;;;;;5073527;28;20623;-66
2021/01/07 07:23:20;;;;;;;25.15;15.88;;;1.00;1.00;;;;;;5073177;28;20258;-66
2021/01/07 07:25:49;;;;;;;28.45;15.25;;;0.90;1.00;;;;;;5074102;28;20197;-66
2021/01/07 07:28:18;;;;;;;28.38;17.17;;;1.00;1.00;;;;;;5073803;28;20204;-66
2021/01/07 07:30:46;;;;;;;25.83;16.17;;;1.00;1.00;;;;;;5073328;28;20618;-68
2021/01/07 07:33:12;;;;;;;25.95;14.98;;;0.90;1.00;;;;;;5073428;28;20216;-68
2021/01/07 07:35:42;;;;;;;22.15;14.82;;;1.00;1.00;;;;;;5073477;28;20651;-74
2021/01/07 07:38:10;;;;;;;23.98;14.27;;;1.00;1.00;;;;;;5074051;28;20205;-74
2021/01/07 07:40:38;;;;;;;34.15;20.20;;;1.50;99.90;;;;;;5073303;28;20656;-74
2021/01/07 07:43:05;;;;;;;29.58;17.20;;;1.60;99.90;;;;;;5073953;28;20247;-69
2021/01/07 07:45:34;;;;;;;35.22;15.65;;;1.50;99.90;;;;;;5070626;28;20207;-70
2021/01/07 07:48:02;;;;;;;20.02;14.77;;;1.40;99.90;;;;;;5071976;28;20205;-70
2021/01/07 07:50:30;;;;;;;23.45;14.55;;;1.40;73.20;;;;;;5072949;28;20220;-69
2021/01/07 07:53:04;;;;;;;22.13;15.65;;;1.40;10.20;;;;;;5072710;28;20225;-70
2021/01/07 07:55:33;;;;;;;25.95;15.90;;;1.40;1.00;;;;;;5072939;28;20192;-68
2021/01/07 07:58:08;;;;;;;24.55;15.32;;;1.30;1.00;;;;;;5072926;28;20662;-67
2021/01/07 08:00:35;;;;;;;26.13;15.23;;;1.40;1.00;;;;;;5072996;28;20199;-67
2021/01/07 08:03:02;;;;;;;25.52;15.30;;;1.40;1.00;;;;;;5073147;28;20224;-67
2021/01/07 08:05:33;;;;;;;22.20;12.00;;;1.30;1.00;;;;;;5072643;28;20196;-73
2021/01/07 08:08:01;;;;;;;27.67;14.38;;;1.30;1.00;;;;;;5072688;28;20205;-71
2021/01/07 08:10:29;;;;;;;26.73;13.20;;;1.30;1.00;;;;;;5072286;28;20206;-71
2021/01/07 08:12:56;;;;;;;24.35;13.60;;;1.30;1.00;;;;;;5071893;28;20704;-71
2021/01/07 08:15:34;;;;;;;21.85;13.10;;;1.20;1.00;;;;;;5071402;28;20219;-70
2021/01/07 08:21:20;;;;;;;20.85;11.75;;;1.20;1.00;;;;;;4990196;28;20243;-69
2021/01/07 08:23:56;;;;;;;17.58;11.43;;;1.30;1.00;;;;;;5066893;28;20683;-69
2021/01/07 08:26:27;;;;;;;19.02;12.02;;;1.30;1.00;;;;;;5072247;28;20279;-69
2021/01/07 08:28:55;;;;;;;17.20;11.57;;;1.30;1.00;;;;;;5072366;28;20287;-69
2021/01/07 08:31:26;;;;;;;22.05;11.38;;;1.20;1.00;;;;;;5071790;28;20200;-68
2021/01/07 08:33:55;;;;;;;20.33;11.32;;;1.20;1.00;;;;;;5072167;28;20196;-73
2021/01/07 08:36:23;;;;;;;16.67;9.38;;;1.30;1.00;;;;;;5071472;28;20745;-72
2021/01/07 08:38:52;;;;;;;16.77;10.80;;;1.30;1.00;;;;;;5071666;28;20212;-72
2021/01/07 08:41:26;;;;;;;20.50;11.18;;;1.40;99.90;;;;;;5071682;28;20196;-72
2021/01/07 08:43:54;;;;;;;21.13;11.13;;;1.40;99.90;;;;;;5072053;28;20204;-68
2021/01/07 08:46:22;;;;;;;18.92;11.45;;;1.40;99.90;;;;;;5070916;28;20200;-67
2021/01/07 08:49:01;;;;;;;17.10;9.40;;;1.20;99.90;;;;;;5072050;28;20197;-69
2021/01/07 08:51:28;;;;;;;22.67;11.05;;;1.30;99.90;;;;;;5071636;28;20570;-68
2021/01/07 08:53:56;;;;;;;26.98;11.68;;;1.40;99.90;;;;;;5071818;28;20197;-67
2021/01/07 08:56:33;;;;;;;23.05;12.93;;;1.40;99.90;;;;;;5071278;28;20219;-68
2021/01/07 08:59:19;;;;;;;21.50;12.27;;;1.60;99.90;;;;;;5072070;28;20283;-68
2021/01/07 09:01:45;;;;;;;18.98;12.10;;;1.60;99.90;;;;;;5071473;28;20224;-68
2021/01/07 09:04:29;;;;;;;24.40;13.55;;;1.70;99.90;;;;;;5071581;28;20215;-68
2021/01/07 09:06:58;;;;;;;15.60;9.55;;;1.60;99.90;;;;;;5071544;28;20250;-68
2021/01/07 09:09:24;;;;;;;18.80;9.93;;;1.70;99.90;;;;;;5072036;28;20192;-67
2021/01/07 09:11:51;;;;;;;24.27;10.30;;;1.60;99.90;;;;;;5071448;28;20217;-67
2021/01/07 09:14:17;;;;;;;25.75;13.35;;;1.70;99.90;;;;;;5071410;28;20649;-68
2021/01/07 09:16:59;;;;;;;19.40;10.43;;;1.80;99.90;;;;;;5071603;28;20219;-68
2021/01/07 09:19:25;;;;;;;23.67;12.10;;;1.80;99.90;;;;;;5071401;28;20633;-68
2021/01/07 09:22:00;;;;;;;15.98;9.52;;;1.90;99.90;;;;;;5071228;28;20228;-68
2021/01/07 09:24:33;;;;;;;14.75;8.30;;;1.90;99.90;;;;;;5071500;28;20207;-68
2021/01/07 09:27:10;;;;;;;19.80;9.43;;;1.90;99.90;;;;;;5070779;28;20246;-69
2021/01/07 09:29:38;;;;;;;16.33;10.45;;;1.80;40.50;;;;;;5071418;28;20293;-70
2021/01/07 09:32:06;;;;;;;11.48;8.40;;;1.80;54.40;;;;;;5070802;28;20223;-66
2021/01/07 09:34:32;;;;;;;20.98;10.75;;;1.70;58.90;;;;;;5071264;28;20209;-66
2021/01/07 09:37:14;;;;;;;16.92;9.80;;;1.70;99.90;;;;;;5071160;28;20313;-66
2021/01/07 09:39:40;;;;;;;16.50;10.60;;;1.70;99.90;;;;;;5071607;28;20200;-66
2021/01/07 09:42:07;;;;;;;16.30;8.82;;;1.80;99.90;;;;;;5071235;28;20216;-65
2021/01/07 09:44:34;;;;;;;16.60;11.85;;;1.80;99.90;;;;;;5070867;28;20200;-65
2021/01/07 09:47:01;;;;;;;23.80;12.80;;;1.90;99.90;;;;;;5070838;28;20199;-65
2021/01/07 09:49:27;;;;;;;22.67;11.55;;;1.90;99.90;;;;;;5071161;28;20258;-67
2021/01/07 09:51:54;;;;;;;22.10;10.57;;;1.90;99.90;;;;;;5070932;28;20266;-66
2021/01/07 09:54:23;;;;;;;24.27;13.60;;;1.80;99.90;;;;;;5071040;28;20200;-66
2021/01/07 09:56:53;;;;;;;18.45;11.60;;;1.80;99.90;;;;;;5070984;28;20590;-68
2021/01/07 09:59:21;;;;;;;20.73;13.15;;;1.80;99.90;;;;;;5071781;28;20204;-65
2021/01/07 10:01:48;;;;;;;18.33;11.20;;;1.90;99.90;;;;;;5070862;28;20731;-65
2021/01/07 10:04:14;;;;;;;18.75;13.15;;;1.80;99.90;;;;;;5070939;28;20200;-65
2021/01/07 10:06:41;;;;;;;21.48;11.05;;;1.70;99.90;;;;;;5070536;28;20196;-65
2021/01/07 10:09:07;;;;;;;19.35;12.50;;;1.70;99.90;;;;;;5071259;28;20196;-65
2021/01/07 10:11:35;;;;;;;23.98;12.73;;;1.80;99.90;;;;;;5070162;28;20624;-67
2021/01/07 10:14:03;;;;;;;19.55;13.18;;;1.80;99.90;;;;;;5071222;28;20200;-68
2021/01/07 10:16:30;;;;;;;17.60;11.43;;;1.90;99.90;;;;;;5070713;28;20219;-67
2021/01/07 10:19:44;;;;;;;19.10;11.30;;;1.90;99.90;;;;;;5070991;28;20193;-69
2021/01/07 10:22:14;;;;;;;19.23;11.95;;;1.90;99.90;;;;;;5069979;28;20235;-68
2021/01/07 10:27:30;;;;;;;21.50;13.18;;;1.90;99.90;;;;;;5070279;28;20200;-67
2021/01/07 10:29:59;;;;;;;21.33;12.98;;;1.90;99.90;;;;;;5071043;28;20200;-66
2021/01/07 10:32:26;;;;;;;20.85;14.48;;;1.70;99.90;;;;;;5071129;28;20269;-67
2021/01/07 10:34:53;;;;;;;19.88;14.52;;;1.70;99.90;;;;;;5070407;28;20242;-69
2021/01/07 10:37:21;;;;;;;19.55;13.65;;;1.60;99.90;;;;;;5070969;28;20757;-68
2021/01/07 10:39:48;;;;;;;24.40;15.60;;;1.80;99.90;;;;;;5073240;28;20212;-68
2021/01/07 10:42:16;;;;;;;20.42;13.25;;;1.80;99.90;;;;;;5073516;28;20258;-66
2021/01/07 10:44:45;;;;;;;18.27;13.13;;;1.70;99.90;;;;;;5074226;28;20207;-65
2021/01/07 10:47:12;;;;;;;19.45;12.95;;;1.60;99.90;;;;;;5074403;28;20203;-66
2021/01/07 10:49:41;;;;;;;21.40;12.95;;;1.70;99.90;;;;;;5074350;28;20246;-65
2021/01/07 10:52:40;;;;;;;20.58;13.45;;;1.80;99.90;;;;;;5073822;28;20220;-66
2021/01/07 10:55:10;;;;;;;21.20;13.57;;;1.80;99.90;;;;;;5073665;28;20196;-66
2021/01/07 10:58:25;;;;;;;34.83;17.65;;;1.80;99.90;;;;;;5073636;28;20767;-66
2021/01/07 11:01:06;;;;;;;17.75;12.18;;;1.80;99.90;;;;;;5073986;28;20257;-65
2021/01/07 11:03:51;;;;;;;19.88;13.02;;;1.80;99.90;;;;;;5073591;28;20227;-65
2021/01/07 11:06:21;;;;;;;36.00;17.33;;;1.80;99.90;;;;;;5073781;28;20197;-65
2021/01/07 11:08:53;;;;;;;23.55;15.77;;;1.90;1.00;;;;;;5073499;28;20197;-65
2021/01/07 11:11:23;;;;;;;20.70;13.45;;;1.90;1.00;;;;;;5073717;28;20219;-65
2021/01/07 11:13:55;;;;;;;22.20;14.70;;;1.70;99.90;;;;;;5073632;28;20665;-66
2021/01/07 11:16:27;;;;;;;20.60;13.02;;;1.80;99.90;;;;;;5072913;28;20228;-65
2021/01/07 11:21:45;;;;;;;32.63;16.00;;;1.70;99.90;;;;;;5072386;28;20234;-68
2021/01/07 11:24:13;;;;;;;35.97;15.93;;;1.70;99.90;;;;;;5073582;28;20625;-69
2021/01/07 11:26:41;;;;;;;26.48;16.75;;;1.80;1.00;;;;;;5072562;28;20709;-68
2021/01/07 11:29:07;;;;;;;23.60;14.82;;;1.90;1.00;;;;;;5073773;28;20200;-68
2021/01/07 11:31:38;;;;;;;33.33;18.30;;;1.90;99.90;;;;;;5073045;28;20668;-67
2021/01/07 11:34:05;;;;;;;21.77;14.05;;;2.00;99.90;;;;;;5073204;28;20204;-66
2021/01/07 11:36:42;;;;;;;29.05;17.77;;;2.00;99.90;;;;;;5073037;28;20221;-66
2021/01/07 11:39:09;;;;;;;25.85;16.17;;;2.00;99.90;;;;;;5072990;28;20234;-67
2021/01/07 11:41:47;;;;;;;24.63;14.02;;;1.90;99.90;;;;;;5073186;28;20287;-67
2021/01/07 11:44:31;;;;;;;23.10;14.35;;;1.90;99.90;;;;;;5073182;28;20268;-66
2021/01/07 11:47:07;;;;;;;30.45;17.45;;;1.80;99.90;;;;;;5073591;28;20196;-68
2021/01/07 11:49:39;;;;;;;25.73;15.98;;;1.90;99.90;;;;;;5073124;28;20265;-66
2021/01/07 11:52:07;;;;;;;22.70;15.25;;;2.00;99.90;;;;;;5071832;28;20257;-67
2021/01/07 11:54:34;;;;;;;22.83;15.07;;;2.10;99.90;;;;;;5073950;28;20208;-67
2021/01/07 11:57:00;;;;;;;23.98;14.10;;;2.20;99.90;;;;;;5073826;28;20215;-69
2021/01/07 11:59:27;;;;;;;22.50;13.77;;;2.30;99.90;;;;;;5073530;28;20208;-69
2021/01/07 12:01:53;;;;;;;21.45;14.20;;;2.20;99.90;;;;;;5072399;28;20263;-67
2021/01/07 12:04:21;;;;;;;20.25;13.77;;;2.20;99.90;;;;;;5073329;28;20189;-68
2021/01/07 12:06:58;;;;;;;18.52;12.30;;;2.10;99.90;;;;;;5073465;28;20227;-68
2021/01/07 12:09:33;;;;;;;17.95;12.60;;;2.20;99.90;;;;;;5072907;28;20548;-68
2021/01/07 12:12:03;;;;;;;22.15;13.50;;;2.20;99.90;;;;;;5072320;28;20717;-67
2021/01/07 12:14:46;;;;;;;16.88;10.73;;;2.20;99.90;;;;;;5072265;28;20197;-71
2021/01/07 12:20:37;;;;;;;19.30;13.55;;;2.40;99.90;;;;;;5072718;28;20179;-72
2021/01/07 12:23:06;;;;;;;19.33;12.45;;;2.50;99.90;;;;;;5071883;28;20266;-70
2021/01/07 12:25:32;;;;;;;21.85;14.30;;;2.50;99.90;;;;;;5072225;28;20201;-69
2021/01/07 12:27:59;;;;;;;21.13;14.35;;;2.60;99.90;;;;;;5072983;28;20207;-69
2021/01/07 12:30:25;;;;;;;26.50;14.82;;;2.60;99.90;;;;;;5072670;28;20196;-70
2021/01/07 12:33:09;;;;;;;25.63;15.60;;;2.60;99.90;;;;;;5072423;28;20220;-69
2021/01/07 12:35:36;;;;;;;21.65;14.45;;;2.70;99.90;;;;;;5072206;28;20185;-68
2021/01/07 12:38:16;;;;;;;22.65;14.93;;;2.70;99.90;;;;;;5072100;28;20216;-66
2021/01/07 12:40:50;;;;;;;19.13;11.98;;;2.70;99.90;;;;;;5071954;28;20203;-67
2021/01/07 12:43:18;;;;;;;18.80;13.55;;;2.40;78.80;;;;;;5071787;28;20216;-66
2021/01/07 12:45:46;;;;;;;16.55;10.65;;;2.40;79.30;;;;;;5071862;28;20250;-66
2021/01/07 12:48:14;;;;;;;16.63;10.07;;;2.40;99.90;;;;;;5071922;28;20196;-66
2021/01/07 12:50:42;;;;;;;13.68;10.23;;;2.30;99.90;;;;;;5072053;28;20653;-67
2021/01/07 12:53:08;;;;;;;12.50;8.23;;;2.30;99.90;;;;;;5071700;28;20223;-67
2021/01/07 12:55:35;;;;;;;13.15;9.45;;;2.30;99.90;;;;;;5071958;28;20202;-67
2021/01/07 12:58:09;;;;;;;18.00;10.25;;;2.30;99.90;;;;;;5072205;28;20224;-69
2021/01/07 13:00:41;;;;;;;15.70;10.77;;;2.30;99.90;;;;;;5071729;28;20204;-68